Time;durP1;ratioP1;P1;durP2;ratioP2;P2;SDS_P1;SDS_P2;PMS_P1;PMS_P2;Temp;Humidity;BMP_temperature;BMP_pressure;BME280_temperature;BME280_humidity;BME280_pressure;Samples;Min_cycle;Max_cycle;Signal;HPM_P1;HPM_P2
2023/10/13 00:01:20;;;;;;;14.32;5.53;;;15.90;99.90;;;;;;4987371;28;20536;-88
2023/10/13 00:03:46;;;;;;;19.27;5.40;;;15.90;99.90;;;;;;5055333;28;20103;-88
2023/10/13 00:06:12;;;;;;;12.85;4.88;;;15.90;99.90;;;;;;4988279;28;20048;-88
2023/10/13 00:08:39;;;;;;;11.25;5.82;;;16.00;99.90;;;;;;4987157;28;20495;-88
2023/10/13 00:11:11;;;;;;;9.57;4.80;;;16.00;99.90;;;;;;4988205;28;20386;-88
2023/10/13 00:13:50;;;;;;;11.77;4.15;;;16.10;99.90;;;;;;5055069;28;20111;-88
2023/10/13 00:16:21;;;;;;;9.75;5.05;;;16.10;99.90;;;;;;5053782;28;20117;-88
2023/10/13 00:18:54;;;;;;;11.00;4.25;;;16.10;99.90;;;;;;4987961;28;20038;-88
2023/10/13 00:21:31;;;;;;;9.90;4.18;;;16.10;99.90;;;;;;5054784;28;20050;-88
2023/10/13 00:24:00;;;;;;;10.85;4.43;;;16.20;99.90;;;;;;4986447;28;20525;-87
2023/10/13 00:26:28;;;;;;;12.63;4.10;;;16.20;99.90;;;;;;4968263;28;20047;-88
2023/10/13 00:31:36;;;;;;;12.30;4.78;;;16.20;99.90;;;;;;5038998;28;20051;-88
2023/10/13 00:34:10;;;;;;;7.93;3.92;;;16.30;99.90;;;;;;5039726;28;20055;-88
2023/10/13 00:36:36;;;;;;;11.95;3.63;;;16.30;99.90;;;;;;5038869;28;20398;-88
2023/10/13 00:39:06;;;;;;;5.93;3.45;;;16.30;99.90;;;;;;5038387;28;20047;-88
2023/10/13 00:41:50;;;;;;;;;;;16.30;99.90;;;;;;5044894;28;20078;-88
2023/10/13 00:44:16;;;;;;;9.30;3.67;;;16.30;99.90;;;;;;5053937;28;20614;-88
2023/10/13 00:46:45;;;;;;;9.27;3.75;;;16.40;99.90;;;;;;4970337;28;20050;-87
2023/10/13 00:49:15;;;;;;;9.77;3.90;;;16.40;99.90;;;;;;4970120;28;20051;-87
2023/10/13 00:51:47;;;;;;;10.77;3.95;;;16.40;99.90;;;;;;4969619;28;20130;-88
2023/10/13 00:54:16;;;;;;;7.15;3.63;;;16.40;99.90;;;;;;4969462;28;20153;-88
2023/10/13 00:56:57;;;;;;;11.75;4.43;;;16.40;99.90;;;;;;4968857;28;20172;-88
2023/10/13 00:59:25;;;;;;;10.60;4.15;;;16.50;99.90;;;;;;4970487;28;20126;-88
2023/10/13 01:01:55;;;;;;;9.75;4.03;;;16.50;99.90;;;;;;4971512;28;20100;-88
2023/10/13 01:04:24;;;;;;;7.22;3.58;;;16.50;99.90;;;;;;4970660;28;20122;-87
2023/10/13 01:06:53;;;;;;;11.65;3.60;;;16.50;99.90;;;;;;4971434;28;20053;-88
2023/10/13 01:09:18;;;;;;;10.32;4.10;;;16.50;99.90;;;;;;4969798;28;20051;-88
2023/10/13 01:11:52;;;;;;;6.75;3.17;;;16.50;99.90;;;;;;4969177;28;20153;-88
2023/10/13 01:14:27;;;;;;;6.68;3.42;;;16.50;99.90;;;;;;4970601;28;20043;-88
2023/10/13 01:16:53;;;;;;;8.60;3.75;;;16.50;99.90;;;;;;5054922;28;20483;-88
2023/10/13 01:19:24;;;;;;;8.48;4.25;;;16.50;99.90;;;;;;4970345;28;20043;-88
2023/10/13 01:21:56;;;;;;;9.13;4.30;;;16.50;99.90;;;;;;4970465;28;20050;-87
2023/10/13 01:24:24;;;;;;;8.30;4.10;;;16.50;99.90;;;;;;4969303;28;20051;-87
2023/10/13 01:26:52;;;;;;;8.38;3.50;;;16.50;99.90;;;;;;4969211;28;20254;-88
2023/10/13 01:29:19;;;;;;;9.30;3.90;;;16.50;99.90;;;;;;4969221;28;20529;-87
2023/10/13 01:31:46;;;;;;;7.13;3.55;;;16.50;99.90;;;;;;5054070;28;20046;-87
2023/10/13 01:34:21;;;;;;;11.48;5.50;;;16.50;99.90;;;;;;5053561;28;20059;-87
2023/10/13 01:36:51;;;;;;;10.02;4.55;;;16.50;99.90;;;;;;4969197;28;20521;-88
2023/10/13 01:39:20;;;;;;;8.38;3.80;;;16.50;99.90;;;;;;4967535;28;20043;-87
2023/10/13 01:41:55;;;;;;;10.02;4.07;;;16.50;99.90;;;;;;4970122;28;20035;-88
2023/10/13 01:44:27;;;;;;;9.70;4.70;;;16.50;99.90;;;;;;4973895;28;20051;-88
2023/10/13 01:46:54;;;;;;;8.63;4.43;;;16.50;99.90;;;;;;4989026;28;20081;-88
2023/10/13 01:49:22;;;;;;;9.07;4.35;;;16.50;99.90;;;;;;5057097;28;20078;-88
2023/10/13 01:51:48;;;;;;;9.70;4.17;;;16.50;99.90;;;;;;4990072;28;20498;-88
2023/10/13 01:54:15;;;;;;;9.30;4.95;;;16.50;99.90;;;;;;4989872;28;20030;-88
2023/10/13 01:56:44;;;;;;;7.45;3.70;;;16.50;99.90;;;;;;4990105;28;20052;-88
2023/10/13 01:59:12;;;;;;;11.63;4.90;;;16.50;99.90;;;;;;4989766;28;20061;-88
2023/10/13 02:01:40;;;;;;;9.07;4.40;;;16.50;99.90;;;;;;4988227;28;20046;-87
2023/10/13 02:04:07;;;;;;;11.02;4.20;;;16.50;99.90;;;;;;5056602;28;20047;-88
2023/10/13 02:06:36;;;;;;;10.73;4.68;;;16.50;99.90;;;;;;4989287;28;20042;-89
2023/10/13 02:09:12;;;;;;;9.90;4.53;;;16.50;99.90;;;;;;4988181;28;20050;-88
2023/10/13 02:11:45;;;;;;;10.38;4.05;;;16.50;99.90;;;;;;5056731;28;20046;-88
2023/10/13 02:14:16;;;;;;;9.35;4.47;;;16.50;99.90;;;;;;4988432;28;20046;-88
2023/10/13 02:16:41;;;;;;;12.05;4.72;;;16.50;99.90;;;;;;5056647;28;20456;-89
2023/10/13 02:19:08;;;;;;;8.85;4.50;;;16.50;99.90;;;;;;4989520;28;20049;-87
2023/10/13 02:21:39;;;;;;;13.30;4.90;;;16.50;99.90;;;;;;4988174;28;20482;-88
2023/10/13 02:24:30;;;;;;;11.40;5.97;;;16.50;99.90;;;;;;4988570;28;20053;-88
2023/10/13 02:26:54;;;;;;;10.07;5.78;;;16.50;99.90;;;;;;4989772;28;20137;-88
2023/10/13 02:29:20;;;;;;;14.02;5.78;;;16.50;99.90;;;;;;4988157;28;20117;-88
2023/10/13 02:31:54;;;;;;;11.40;5.22;;;16.50;99.90;;;;;;4989008;28;20119;-87
2023/10/13 02:34:24;;;;;;;9.40;4.88;;;16.50;99.90;;;;;;4988992;28;20046;-88
2023/10/13 02:36:50;;;;;;;10.75;4.90;;;16.50;99.90;;;;;;4988452;28;20046;-88
2023/10/13 02:39:16;;;;;;;7.95;3.90;;;16.50;99.90;;;;;;4989244;28;20478;-88
2023/10/13 02:41:48;;;;;;;10.63;4.15;;;16.50;99.90;;;;;;4988372;28;20046;-87
2023/10/13 02:44:27;;;;;;;10.15;4.18;;;16.40;99.90;;;;;;4988391;28;20129;-87
2023/10/13 02:46:56;;;;;;;7.70;4.00;;;16.40;99.90;;;;;;4988602;28;20062;-87
2023/10/13 02:49:26;;;;;;;4.35;2.50;;;16.40;99.90;;;;;;4987849;28;20045;-88
2023/10/13 02:52:02;;;;;;;5.43;2.80;;;16.40;99.90;;;;;;5055610;28;20046;-88
2023/10/13 02:54:31;;;;;;;9.20;3.78;;;16.40;99.90;;;;;;4988505;28;20137;-88
2023/10/13 02:56:57;;;;;;;7.60;4.20;;;16.40;99.90;;;;;;4987969;28;20490;-88
2023/10/13 03:00:12;;;;;;;9.10;4.22;;;16.40;99.90;;;;;;4988660;28;20274;-88
2023/10/13 03:02:27;;;;;;;;;;;16.40;99.90;;;;;;5045649;28;20073;-89
2023/10/13 03:05:10;;;;;;;10.63;4.20;;;16.40;99.90;;;;;;5054173;28;19963;-88
2023/10/13 03:07:36;;;;;;;9.38;4.40;;;16.40;99.90;;;;;;5055859;28;20043;-89
2023/10/13 03:10:12;;;;;;;6.47;3.80;;;16.40;99.90;;;;;;5054646;28;20053;-89
2023/10/13 03:12:41;;;;;;;10.27;4.85;;;16.40;99.90;;;;;;5056556;28;20494;-88
2023/10/13 03:15:17;;;;;;;10.98;4.70;;;16.40;99.90;;;;;;5056127;28;20042;-90
2023/10/13 03:17:47;;;;;;;11.77;5.63;;;16.40;99.90;;;;;;5054736;28;20105;-89
2023/10/13 03:20:15;;;;;;;8.27;4.18;;;16.40;99.90;;;;;;5055479;28;20069;-88
2023/10/13 03:22:45;;;;;;;11.40;5.07;;;16.40;99.90;;;;;;5055275;28;20045;-88
2023/10/13 03:25:23;;;;;;;11.52;5.60;;;16.40;99.90;;;;;;5054909;28;20051;-89
2023/10/13 03:30:20;;;;;;;12.55;4.78;;;16.40;99.90;;;;;;5055252;28;20501;-89
2023/10/13 03:32:49;;;;;;;9.50;4.50;;;16.40;99.90;;;;;;5038326;28;20052;-88
2023/10/13 03:35:24;;;;;;;9.65;4.65;;;16.40;99.90;;;;;;5055135;28;20046;-89
2023/10/13 03:37:54;;;;;;;10.77;4.15;;;16.40;99.90;;;;;;5054831;28;20046;-90
2023/10/13 03:43:09;;;;;;;13.23;4.85;;;16.40;99.90;;;;;;5055308;28;20489;-90
2023/10/13 03:45:41;;;;;;;12.20;3.78;;;16.40;99.90;;;;;;5054023;28;20058;-88
2023/10/13 03:48:09;;;;;;;7.88;4.13;;;16.40;99.90;;;;;;5055213;28;20049;-88
2023/10/13 03:50:47;;;;;;;9.55;4.00;;;16.40;99.90;;;;;;5055691;28;20046;-89
2023/10/13 03:53:14;;;;;;;9.43;3.88;;;16.40;99.90;;;;;;5054108;28;20413;-89
2023/10/13 03:55:47;;;;;;;7.93;4.05;;;16.40;99.90;;;;;;5055152;28;20051;-88
2023/10/13 03:58:16;;;;;;;9.10;4.28;;;16.40;99.90;;;;;;5055776;28;20468;-89
2023/10/13 04:00:42;;;;;;;8.57;3.67;;;16.40;99.90;;;;;;5054827;28;20381;-89
2023/10/13 04:03:09;;;;;;;11.20;4.53;;;16.40;99.90;;;;;;4993097;28;20278;-89
2023/10/13 04:05:40;;;;;;;8.45;3.58;;;16.40;99.90;;;;;;4994356;28;20133;-89
2023/10/13 04:21:42;;;;;;;9.60;4.50;;;16.40;99.90;;;;;;5061087;28;20457;-88
2023/10/13 04:30:10;;;;;;;12.38;4.40;;;16.30;99.90;;;;;;5061896;28;20057;-87
2023/10/13 04:32:41;;;;;;;9.52;4.85;;;16.30;99.90;;;;;;5062101;28;20042;-88
2023/10/13 04:38:01;;;;;;;13.40;4.80;;;16.30;99.90;;;;;;5061273;28;20370;-88
2023/10/13 04:40:25;;;;;;;11.10;4.57;;;16.30;99.90;;;;;;5060316;28;20050;-88
2023/10/13 04:42:57;;;;;;;6.88;3.72;;;16.20;99.90;;;;;;5060201;28;20047;-88
2023/10/13 04:48:47;;;;;;;7.93;4.63;;;16.20;99.90;;;;;;5060373;28;20631;-89
2023/10/13 04:50:50;;;;;;;9.68;4.25;;;16.20;99.90;;;;;;5046940;28;20548;-89
2023/10/13 04:54:00;;;;;;;9.48;4.03;;;16.20;99.90;;;;;;5061363;28;20035;-87
2023/10/13 04:59:18;;;;;;;9.77;4.07;;;16.20;99.90;;;;;;5061107;28;20038;-88
2023/10/13 05:05:11;;;;;;;6.00;2.97;;;16.10;99.90;;;;;;5061065;28;20047;-85
2023/10/13 06:29:56;;;;;;;2.38;1.38;;;16.00;99.90;;;;;;5056243;28;20171;-85
2023/10/13 06:32:26;;;;;;;12.38;1.73;;;16.00;99.90;;;;;;5039375;28;20133;-85
2023/10/13 06:34:57;;;;;;;4.63;1.58;;;16.10;99.90;;;;;;5055380;28;20099;-87
2023/10/13 06:37:30;;;;;;;3.53;1.65;;;16.10;99.90;;;;;;5039534;28;20058;-86
2023/10/13 06:40:09;;;;;;;4.00;1.50;;;16.10;99.90;;;;;;5055275;28;20050;-87
2023/10/13 06:42:35;;;;;;;3.85;1.95;;;16.20;99.90;;;;;;5039173;28;20421;-87
2023/10/13 06:45:08;;;;;;;2.92;1.83;;;16.20;99.90;;;;;;5039370;28;20050;-85
2023/10/13 06:47:43;;;;;;;2.13;1.25;;;16.20;99.90;;;;;;5038398;28;20049;-86
2023/10/13 06:50:16;;;;;;;3.05;1.45;;;16.20;99.90;;;;;;5055704;28;20050;-85
2023/10/13 06:52:43;;;;;;;3.17;1.13;;;16.30;99.90;;;;;;5055465;28;20076;-85
2023/10/13 06:55:11;;;;;;;9.35;1.40;;;16.30;99.90;;;;;;5054199;28;20054;-86
2023/10/13 06:57:37;;;;;;;2.75;1.45;;;16.30;99.90;;;;;;5055794;28;20050;-91
2023/10/13 07:00:07;;;;;;;2.30;1.05;;;16.20;99.90;;;;;;5018521;28;20103;-86
2023/10/13 07:02:34;;;;;;;7.78;2.17;;;16.20;99.90;;;;;;4967172;28;20047;-85
2023/10/13 07:05:11;;;;;;;2.17;1.15;;;16.20;99.90;;;;;;4951325;28;20043;-86
2023/10/13 07:07:39;;;;;;;3.40;1.42;;;16.20;99.90;;;;;;4967253;28;20057;-86
2023/10/13 07:10:12;;;;;;;5.93;2.38;;;16.20;99.90;;;;;;4966994;28;20129;-86
2023/10/13 07:12:43;;;;;;;3.38;1.38;;;16.20;99.90;;;;;;5033442;28;20122;-86
2023/10/13 07:17:44;;;;;;;2.17;1.13;;;16.20;99.90;;;;;;5038738;28;20100;-85
2023/10/13 07:20:32;;;;;;;2.70;1.47;;;16.20;99.90;;;;;;5058567;28;20049;-86
2023/10/13 07:23:05;;;;;;;3.70;1.95;;;16.20;99.90;;;;;;5040547;28;20054;-85
2023/10/13 07:25:40;;;;;;;4.07;1.67;;;16.20;99.90;;;;;;5038565;28;20498;-86
2023/10/13 07:28:10;;;;;;;5.30;1.30;;;16.20;99.90;;;;;;5055084;28;20335;-85
2023/10/13 07:30:49;;;;;;;4.32;1.20;;;16.20;99.90;;;;;;5055023;28;20038;-86
2023/10/13 07:33:19;;;;;;;3.95;1.45;;;16.20;99.90;;;;;;5038772;28;20664;-86
2023/10/13 07:35:50;;;;;;;3.75;1.48;;;16.20;99.90;;;;;;5038894;28;20042;-86
2023/10/13 07:38:16;;;;;;;4.95;1.33;;;16.30;99.90;;;;;;5037985;28;20046;-86
2023/10/13 07:40:50;;;;;;;6.43;1.70;;;16.20;99.90;;;;;;5038957;28;20382;-86
2023/10/13 07:43:21;;;;;;;6.35;1.55;;;16.20;99.90;;;;;;5037996;28;20045;-88
2023/10/13 07:45:58;;;;;;;8.70;1.60;;;16.20;99.90;;;;;;5038406;28;20043;-88
2023/10/13 07:48:25;;;;;;;5.68;2.22;;;16.20;99.90;;;;;;5039402;28;20039;-91
2023/10/13 07:51:11;;;;;;;5.93;2.08;;;16.20;99.90;;;;;;5037783;28;20048;-85
2023/10/13 07:53:40;;;;;;;3.85;1.70;;;16.20;99.90;;;;;;5032102;28;20038;-89
2023/10/13 07:56:11;;;;;;;6.07;1.60;;;16.30;99.90;;;;;;5034772;28;20064;-90
2023/10/13 07:58:52;;;;;;;4.70;1.52;;;16.30;99.90;;;;;;5018491;28;20074;-91
2023/10/13 08:01:18;;;;;;;7.13;2.25;;;16.30;99.90;;;;;;5021754;28;20043;-89
2023/10/13 08:03:45;;;;;;;5.63;2.40;;;16.30;99.90;;;;;;5019222;28;20042;-94
2023/10/13 08:08:38;;;;;;;6.88;1.80;;;16.30;99.90;;;;;;5034957;28;20147;-94
2023/10/13 08:11:26;;;;;;;5.40;2.00;;;16.30;99.90;;;;;;5017911;28;20069;-85
2023/10/13 08:14:10;;;;;;;3.70;1.67;;;16.30;99.90;;;;;;5034616;28;20043;-96
2023/10/13 08:16:52;;;;;;;3.25;1.85;;;16.30;99.90;;;;;;5034613;28;20054;-85
2023/10/13 08:19:26;;;;;;;5.05;1.88;;;16.30;99.90;;;;;;5032761;28;20046;-85
2023/10/13 08:37:28;;;;;;;8.25;2.55;;;16.50;99.90;;;;;;5054269;28;20061;-92
2023/10/13 09:09:42;;;;;;;6.43;2.53;;;17.20;99.90;;;;;;5057289;28;20137;-84
2023/10/13 09:12:19;;;;;;;7.00;2.88;;;17.20;99.90;;;;;;5040988;28;20046;-84
2023/10/13 09:14:57;;;;;;;4.30;1.98;;;17.30;99.90;;;;;;5056441;28;20062;-84
2023/10/13 09:20:23;;;;;;;4.22;2.30;;;17.40;99.90;;;;;;5057418;28;20042;-84
2023/10/13 09:25:34;;;;;;;3.40;1.90;;;17.60;99.90;;;;;;5049564;28;20050;-83
2023/10/13 09:28:02;;;;;;;6.80;2.22;;;17.70;99.90;;;;;;5056463;28;20346;-83
2023/10/13 09:30:31;;;;;;;11.50;2.70;;;17.80;99.90;;;;;;5056626;28;20612;-84
2023/10/13 09:33:15;;;;;;;4.55;1.80;;;17.90;99.90;;;;;;5056802;28;20438;-83
2023/10/13 09:35:49;;;;;;;7.97;3.13;;;18.00;99.90;;;;;;5056967;28;20081;-84
2023/10/13 09:38:15;;;;;;;3.72;2.00;;;18.10;99.90;;;;;;5056938;28;20086;-84
2023/10/13 09:40:57;;;;;;;4.63;1.67;;;18.20;99.90;;;;;;5057284;28;20099;-83
2023/10/13 09:43:28;;;;;;;4.95;1.92;;;18.20;99.90;;;;;;4990174;28;20042;-83
2023/10/13 09:46:01;;;;;;;3.47;1.77;;;18.30;99.90;;;;;;4990230;28;20061;-84
2023/10/13 09:48:46;;;;;;;5.10;2.30;;;18.30;99.90;;;;;;4991051;28;20041;-82
2023/10/13 09:51:14;;;;;;;5.78;2.53;;;18.20;99.90;;;;;;4990495;28;20038;-84
2023/10/13 09:53:53;;;;;;;7.43;2.13;;;18.30;99.90;;;;;;4990391;28;20038;-83
2023/10/13 09:56:26;;;;;;;5.88;2.15;;;18.30;99.90;;;;;;4989543;28;20497;-83
2023/10/13 09:59:08;;;;;;;5.05;1.50;;;18.40;99.90;;;;;;4989485;28;20084;-83
2023/10/13 10:01:40;;;;;;;3.00;1.80;;;18.50;99.90;;;;;;4989074;28;20130;-84
2023/10/13 10:04:18;;;;;;;5.85;2.03;;;18.50;99.90;;;;;;4988771;28;20120;-82
2023/10/13 10:06:59;;;;;;;12.25;3.70;;;18.60;99.90;;;;;;5040309;28;20038;-83
2023/10/13 10:09:39;;;;;;;9.45;2.33;;;18.60;99.90;;;;;;5061115;28;20074;-83
2023/10/13 10:12:28;;;;;;;8.57;2.00;;;18.60;99.90;;;;;;5059389;28;20042;-82
2023/10/13 10:15:20;;;;;;;2.72;1.52;;;18.70;99.90;;;;;;5073800;28;20046;-82
2023/10/13 10:17:47;;;;;;;4.93;2.20;;;18.70;99.90;;;;;;5055386;28;20085;-83
2023/10/13 10:20:19;;;;;;;5.15;2.80;;;18.70;99.90;;;;;;5056634;28;20510;-84
2023/10/13 10:22:59;;;;;;;4.07;2.40;;;18.80;99.90;;;;;;5055906;28;20030;-84
2023/10/13 10:25:35;;;;;;;5.10;2.25;;;18.80;99.90;;;;;;5047269;28;20042;-83
2023/10/13 10:28:06;;;;;;;8.02;2.35;;;18.90;99.90;;;;;;5056403;28;20490;-84
2023/10/13 10:30:38;;;;;;;3.45;2.05;;;19.00;99.90;;;;;;4988668;28;20038;-83
2023/10/13 10:33:18;;;;;;;4.75;2.83;;;19.10;99.90;;;;;;5055136;28;20103;-85
2023/10/13 10:35:58;;;;;;;6.05;1.92;;;19.20;99.90;;;;;;5055101;28;20121;-83
2023/10/13 10:38:24;;;;;;;6.10;1.70;;;19.30;99.90;;;;;;5054971;28;20042;-84
2023/10/13 10:40:58;;;;;;;5.55;1.80;;;19.40;99.90;;;;;;5055145;28;20047;-83
2023/10/13 10:43:47;;;;;;;6.28;2.08;;;19.50;99.90;;;;;;4988741;28;20102;-83
2023/10/13 10:46:18;;;;;;;5.63;2.05;;;19.60;99.90;;;;;;4987085;28;20054;-84
2023/10/13 10:48:56;;;;;;;5.10;2.50;;;19.70;99.90;;;;;;4988375;28;20047;-83
2023/10/13 10:51:22;;;;;;;6.00;2.00;;;19.70;99.90;;;;;;4988250;28;20038;-84
2023/10/13 10:53:52;;;;;;;10.65;2.28;;;19.80;99.90;;;;;;4987646;28;20038;-83
2023/10/13 10:56:36;;;;;;;3.80;2.47;;;19.80;99.90;;;;;;4988350;28;20074;-83
2023/10/13 10:59:04;;;;;;;5.43;1.73;;;19.80;99.90;;;;;;4988153;28;20049;-84
2023/10/13 11:01:38;;;;;;;4.05;2.30;;;19.70;99.90;;;;;;4988126;28;20466;-83
2023/10/13 11:06:58;;;;;;;6.43;2.38;;;19.70;99.90;;;;;;4988734;28;20050;-83
2023/10/13 11:09:36;;;;;;;6.82;2.72;;;19.80;99.90;;;;;;4988881;28;20034;-85
2023/10/13 11:12:15;;;;;;;5.65;1.85;;;19.80;99.90;;;;;;5053867;28;20053;-84
2023/10/13 11:14:51;;;;;;;5.82;1.92;;;19.90;99.90;;;;;;5054330;28;20120;-83
2023/10/13 11:17:26;;;;;;;4.35;2.10;;;19.80;99.90;;;;;;5055531;28;20378;-83
2023/10/13 11:19:52;;;;;;;4.22;2.30;;;19.80;99.90;;;;;;5055058;28;20069;-83
2023/10/13 11:22:31;;;;;;;3.35;1.98;;;19.80;99.90;;;;;;5054707;28;20053;-84
2023/10/13 11:25:11;;;;;;;5.85;2.45;;;19.70;99.90;;;;;;5052342;28;20039;-84
2023/10/13 11:30:19;;;;;;;7.17;2.50;;;19.50;99.90;;;;;;5054666;28;20122;-83
2023/10/13 11:33:05;;;;;;;5.38;2.03;;;19.50;99.90;;;;;;4987843;28;20113;-83
2023/10/13 11:36:03;;;;;;;6.70;1.92;;;19.50;99.90;;;;;;4990097;28;20076;-84
2023/10/13 11:41:18;;;;;;;6.65;2.40;;;19.50;99.90;;;;;;4987113;28;20074;-83
2023/10/13 11:49:17;;;;;;;5.15;2.47;;;19.60;99.90;;;;;;4986768;28;20046;-86
2023/10/13 11:51:48;;;;;;;6.47;2.90;;;19.60;99.90;;;;;;5055611;28;20141;-83
2023/10/13 11:54:22;;;;;;;7.05;2.65;;;19.60;99.90;;;;;;5053636;28;20174;-82
2023/10/13 11:56:49;;;;;;;5.00;2.05;;;19.60;99.90;;;;;;4986826;28;20034;-83
2023/10/13 11:59:18;;;;;;;5.40;1.90;;;19.60;99.90;;;;;;5054581;28;20078;-83
2023/10/13 12:07:23;;;;;;;7.07;2.80;;;19.60;99.90;;;;;;5055277;28;20138;-83
2023/10/13 12:12:19;;;;;;;6.82;2.30;;;19.50;99.90;;;;;;5055173;28;20051;-82
2023/10/13 12:14:58;;;;;;;6.00;1.67;;;19.50;99.90;;;;;;5051955;28;20409;-83
2023/10/13 12:17:31;;;;;;;5.30;2.80;;;19.50;99.90;;;;;;5033564;28;20499;-83
2023/10/13 12:20:05;;;;;;;6.43;2.08;;;19.50;99.90;;;;;;5034894;28;20089;-83
2023/10/13 12:23:15;;;;;;;4.68;1.77;;;19.50;99.90;;;;;;4973064;28;20118;-83
2023/10/13 12:28:12;;;;;;;6.35;2.60;;;19.50;99.90;;;;;;4991699;28;20046;-83
2023/10/13 12:30:52;;;;;;;7.43;2.15;;;19.50;99.90;;;;;;5056212;28;20054;-83
2023/10/13 12:33:36;;;;;;;7.85;2.50;;;19.40;99.90;;;;;;4990545;28;20115;-82
2023/10/13 12:36:06;;;;;;;4.00;1.98;;;19.40;99.90;;;;;;5058649;28;20046;-84
2023/10/13 12:52:54;;;;;;;6.88;2.30;;;19.00;99.90;;;;;;5055596;28;20058;-82
2023/10/13 12:57:25;;;;;;;5.00;2.63;;;18.90;99.90;;;;;;5057223;28;20042;-84
2023/10/13 12:59:54;;;;;;;5.75;2.78;;;18.90;99.90;;;;;;5057531;28;20394;-84
2023/10/13 13:02:27;;;;;;;4.25;2.08;;;18.90;99.90;;;;;;5057605;28;20046;-83
2023/10/13 13:05:01;;;;;;;7.38;2.45;;;18.80;99.90;;;;;;4989545;28;20042;-84
2023/10/13 13:07:30;;;;;;;9.02;2.80;;;18.80;99.90;;;;;;5057638;28;20494;-85
2023/10/13 13:09:59;;;;;;;8.35;3.13;;;18.70;99.90;;;;;;5057926;28;20125;-84
2023/10/13 13:12:28;;;;;;;6.32;2.80;;;18.60;99.90;;;;;;5057086;28;20047;-85
2023/10/13 13:14:55;;;;;;;6.53;2.50;;;18.60;99.90;;;;;;4990026;28;20385;-84
2023/10/13 13:17:21;;;;;;;6.13;3.08;;;18.50;99.90;;;;;;5057223;28;20049;-84
2023/10/13 13:19:47;;;;;;;6.35;2.60;;;18.50;99.90;;;;;;5057206;28;20047;-83
2023/10/13 13:22:13;;;;;;;5.45;2.63;;;18.50;99.90;;;;;;4989777;28;20053;-83
2023/10/13 13:24:46;;;;;;;5.68;2.47;;;18.50;99.90;;;;;;4990075;28;20050;-83
2023/10/13 13:27:13;;;;;;;6.65;2.47;;;18.50;99.90;;;;;;5056289;28;20104;-83
2023/10/13 13:29:42;;;;;;;7.10;3.00;;;18.40;99.90;;;;;;4990242;28;20070;-85
2023/10/13 13:32:18;;;;;;;8.50;2.70;;;18.40;99.90;;;;;;4989070;28;20045;-86
2023/10/13 13:35:07;;;;;;;5.38;3.35;;;18.40;99.90;;;;;;5054700;28;20088;-87
2023/10/13 13:37:34;;;;;;;11.85;2.85;;;18.50;99.90;;;;;;5055302;28;20049;-86
2023/10/13 13:40:14;;;;;;;9.90;3.10;;;18.40;99.90;;;;;;5055361;28;20042;-86
2023/10/13 13:42:44;;;;;;;8.38;3.20;;;18.50;99.90;;;;;;5052547;28;20061;-86
2023/10/13 13:45:27;;;;;;;8.00;3.33;;;18.50;99.90;;;;;;5057351;28;20054;-86
2023/10/13 13:47:53;;;;;;;5.57;2.40;;;18.50;99.90;;;;;;5054168;28;20506;-86
2023/10/13 13:50:30;;;;;;;6.30;2.60;;;18.50;99.90;;;;;;4969281;28;20107;-84
2023/10/13 13:53:00;;;;;;;10.68;2.40;;;18.50;99.90;;;;;;4970186;28;20035;-85
2023/10/13 13:55:29;;;;;;;7.95;2.42;;;18.40;99.90;;;;;;4970605;28;20050;-85
2023/10/13 13:57:58;;;;;;;4.25;2.25;;;18.30;99.90;;;;;;5055580;28;20038;-85
2023/10/13 14:00:37;;;;;;;6.22;2.45;;;18.30;99.90;;;;;;5055252;28;20038;-86
2023/10/13 14:03:13;;;;;;;12.43;2.80;;;18.30;99.90;;;;;;5053112;28;20042;-85
2023/10/13 14:05:43;;;;;;;9.27;2.90;;;18.30;99.90;;;;;;5053481;28;20050;-85
2023/10/13 14:08:13;;;;;;;9.48;2.88;;;18.30;99.90;;;;;;5055813;28;20112;-85
2023/10/13 14:13:47;;;;;;;8.13;2.85;;;18.20;99.90;;;;;;5056247;28;20043;-84
2023/10/13 14:16:16;;;;;;;7.63;2.70;;;18.20;99.90;;;;;;5055310;28;20049;-86
2023/10/13 14:18:52;;;;;;;6.18;2.75;;;18.30;99.90;;;;;;5055608;28;20386;-83
2023/10/13 14:21:18;;;;;;;4.30;2.60;;;18.30;99.90;;;;;;5055606;28;20346;-85
2023/10/13 14:23:47;;;;;;;5.20;2.28;;;18.40;99.90;;;;;;5054639;28;20046;-85
2023/10/13 14:26:15;;;;;;;12.05;3.03;;;18.40;99.90;;;;;;5056450;28;20069;-86
2023/10/13 14:28:51;;;;;;;7.65;3.22;;;18.50;99.90;;;;;;5056006;28;20490;-84
2023/10/13 14:31:18;;;;;;;5.63;2.55;;;18.50;99.90;;;;;;5056323;28;20374;-86
2023/10/13 14:33:46;;;;;;;6.47;2.75;;;18.60;99.90;;;;;;5056095;28;20066;-84
2023/10/13 14:36:12;;;;;;;4.47;1.90;;;18.60;99.90;;;;;;5054983;28;20043;-85
2023/10/13 14:38:38;;;;;;;4.03;2.05;;;18.60;99.90;;;;;;5056095;28;20205;-85
2023/10/13 14:41:05;;;;;;;5.57;2.40;;;18.60;99.90;;;;;;5053340;28;20053;-86
2023/10/13 14:43:31;;;;;;;9.65;1.98;;;18.60;99.90;;;;;;5035299;28;20055;-85
2023/10/13 14:45:57;;;;;;;9.05;3.22;;;18.60;99.90;;;;;;5036434;28;20560;-84
2023/10/13 14:48:25;;;;;;;6.20;2.20;;;18.60;99.90;;;;;;4977562;28;20165;-85
2023/10/13 14:50:50;;;;;;;4.45;2.00;;;18.60;99.90;;;;;;4988552;28;20093;-87
2023/10/13 14:53:19;;;;;;;5.15;2.40;;;18.60;99.90;;;;;;4988588;28;20519;-86
2023/10/13 14:55:45;;;;;;;7.97;3.00;;;18.50;99.90;;;;;;5055542;28;20321;-86
2023/10/13 14:58:16;;;;;;;8.38;2.92;;;18.50;99.90;;;;;;5054671;28;20160;-86
2023/10/13 15:00:45;;;;;;;7.95;3.15;;;18.50;99.90;;;;;;5055220;28;20070;-86
2023/10/13 15:03:11;;;;;;;;;;;18.40;99.90;;;;;;5056560;28;20069;-85
2023/10/13 15:05:43;;;;;;;7.78;3.22;;;18.30;99.90;;;;;;5055549;28;19995;-85
2023/10/13 15:08:09;;;;;;;6.13;2.90;;;18.20;99.90;;;;;;5056252;28;20062;-84
2023/10/13 15:10:36;;;;;;;5.10;3.45;;;18.10;99.90;;;;;;5054413;28;20133;-87
2023/10/13 15:13:05;;;;;;;8.68;2.88;;;18.00;99.90;;;;;;5054776;28;20046;-85
2023/10/13 15:15:35;;;;;;;7.07;2.70;;;18.00;99.90;;;;;;4988542;28;20121;-85
2023/10/13 15:18:01;;;;;;;7.93;3.08;;;17.90;99.90;;;;;;5054573;28;20572;-86
2023/10/13 15:20:27;;;;;;;7.97;3.20;;;17.90;99.90;;;;;;5055178;28;20078;-85
2023/10/13 15:22:59;;;;;;;5.97;3.40;;;17.90;99.90;;;;;;4987494;28;20049;-85
2023/10/13 15:25:29;;;;;;;10.60;2.92;;;17.80;99.90;;;;;;4979563;28;20038;-86
2023/10/13 15:28:02;;;;;;;6.13;2.53;;;17.80;99.90;;;;;;4987969;28;20060;-86
2023/10/13 15:30:44;;;;;;;5.60;2.30;;;17.80;99.90;;;;;;4987965;28;20116;-84
2023/10/13 15:33:13;;;;;;;4.95;2.97;;;17.80;99.90;;;;;;4986859;28;20053;-86
2023/10/13 15:35:42;;;;;;;6.65;3.10;;;17.80;99.90;;;;;;4988396;28;20053;-96
2023/10/13 15:38:12;;;;;;;;;;;17.70;99.90;;;;;;5042815;28;20049;-86
2023/10/13 15:40:44;;;;;;;8.10;2.92;;;17.70;99.90;;;;;;5053234;28;19957;-88
2023/10/13 15:43:12;;;;;;;5.70;2.75;;;17.70;99.90;;;;;;5053281;28;20035;-86
2023/10/13 15:45:42;;;;;;;14.20;3.60;;;17.70;99.90;;;;;;4990205;28;20058;-86
2023/10/13 15:48:11;;;;;;;8.50;3.65;;;17.70;99.90;;;;;;4962726;28;20039;-85
2023/10/13 15:50:40;;;;;;;5.25;2.80;;;17.70;99.90;;;;;;4963014;28;20047;-86
2023/10/13 15:53:07;;;;;;;8.07;2.15;;;17.70;99.90;;;;;;4963139;28;20113;-87
2023/10/13 15:55:36;;;;;;;9.85;2.72;;;17.70;99.90;;;;;;4963369;28;20049;-85
2023/10/13 15:58:02;;;;;;;;;;;17.70;99.90;;;;;;4963586;28;20074;-86
2023/10/13 16:00:29;;;;;;;7.70;2.40;;;17.70;99.90;;;;;;4963727;28;19961;-86
2023/10/13 16:02:56;;;;;;;5.95;3.20;;;17.70;99.90;;;;;;4947414;28;20104;-84
2023/10/13 16:05:42;;;;;;;11.90;3.30;;;17.70;99.90;;;;;;4964269;28;20106;-86
2023/10/13 16:08:11;;;;;;;4.45;1.90;;;17.70;99.90;;;;;;4962522;28;20050;-85
2023/10/13 16:10:38;;;;;;;4.38;2.10;;;17.60;99.90;;;;;;4963808;28;20104;-85
2023/10/13 16:13:07;;;;;;;8.85;2.25;;;17.60;99.90;;;;;;4962897;28;20038;-85
2023/10/13 16:15:40;;;;;;;5.30;1.60;;;17.60;99.90;;;;;;4962247;28;20085;-83
2023/10/13 16:18:06;;;;;;;5.68;1.90;;;17.60;99.90;;;;;;5047315;28;20053;-85
2023/10/13 16:20:32;;;;;;;4.50;1.73;;;17.60;99.90;;;;;;4962750;28;20085;-86
2023/10/13 16:22:58;;;;;;;4.50;1.50;;;17.60;99.90;;;;;;4962964;28;20066;-85
2023/10/13 16:25:24;;;;;;;5.25;1.17;;;17.60;99.90;;;;;;4964004;28;20074;-84
2023/10/13 16:27:49;;;;;;;3.22;1.85;;;17.60;99.90;;;;;;4962863;28;20124;-85
2023/10/13 16:30:15;;;;;;;3.60;1.55;;;17.60;99.90;;;;;;4962708;28;20429;-83
2023/10/13 16:32:49;;;;;;;3.05;1.52;;;17.70;99.90;;;;;;4963022;28;20049;-84
2023/10/13 16:35:18;;;;;;;4.28;1.13;;;17.70;99.90;;;;;;4946132;28;20039;-84
2023/10/13 16:37:50;;;;;;;2.58;0.90;;;17.70;99.90;;;;;;4962658;28;20564;-85
2023/10/13 16:40:18;;;;;;;3.88;1.75;;;17.80;99.90;;;;;;4962940;28;20054;-83
2023/10/13 16:42:46;;;;;;;6.85;1.50;;;17.80;99.90;;;;;;4960062;28;20039;-83
2023/10/13 16:45:15;;;;;;;4.80;1.60;;;17.80;99.90;;;;;;4974462;28;20070;-83
2023/10/13 16:47:44;;;;;;;3.67;1.47;;;17.90;99.90;;;;;;5049784;28;20042;-84
2023/10/13 16:50:11;;;;;;;5.88;1.85;;;17.90;99.90;;;;;;5049169;28;20038;-84